createdAt,value
2023-02-08T00:01:33.087Z,42.58
2023-02-08T00:04:01.422Z,46.45
2023-02-08T00:06:31.361Z,43.35
2023-02-08T00:09:01.291Z,43.60
2023-02-08T00:11:29.494Z,44.67
2023-02-08T00:13:58.005Z,44.42
2023-02-08T00:16:26.157Z,41.42
2023-02-08T00:18:54.256Z,44.03
2023-02-08T00:21:22.421Z,42.92
2023-02-08T00:23:51.963Z,43.10
2023-02-08T00:26:20.221Z,45.38
2023-02-08T00:28:48.431Z,42.88
2023-02-08T00:31:19.340Z,45.40
2023-02-08T00:33:48.408Z,42.95
2023-02-08T00:36:17.009Z,43.10
2023-02-08T00:38:45.374Z,42.80
2023-02-08T00:41:15.006Z,43.75
2023-02-08T00:43:43.165Z,41.85
2023-02-08T00:46:11.474Z,42.25
2023-02-08T00:48:39.749Z,42.35
2023-02-08T00:51:09.824Z,43.20
2023-02-08T00:53:39.381Z,47.65
2023-02-08T00:56:08.300Z,44.80
2023-02-08T00:58:38.150Z,43.72
2023-02-08T05:03:04.564Z,32.15
2023-02-08T05:05:34.149Z,31.55
2023-02-08T05:08:02.747Z,31.95
2023-02-08T05:10:30.921Z,31.45
2023-02-08T05:12:59.130Z,31.98
2023-02-08T05:15:27.422Z,33.00
2023-02-08T05:17:55.470Z,30.60
2023-02-08T05:20:23.588Z,32.58
2023-02-08T05:22:53.262Z,32.40
2023-02-08T05:25:21.600Z,32.45
2023-02-08T05:27:49.733Z,33.05
2023-02-08T05:30:18.239Z,33.33
2023-02-08T05:32:46.856Z,33.85
2023-02-08T05:35:15.082Z,33.50
2023-02-08T05:37:43.207Z,33.30
2023-02-08T05:40:13.460Z,33.03
2023-02-08T05:42:42.392Z,32.65
2023-02-08T05:45:12.815Z,34.03
2023-02-08T05:47:41.929Z,32.92
2023-02-08T05:50:10.616Z,31.77
2023-02-08T05:52:38.858Z,33.83
2023-02-08T05:55:08.121Z,33.28
2023-02-08T05:57:38.148Z,33.35
2023-02-08T06:00:07.523Z,34.97
2023-02-08T06:02:44.252Z,35.50
2023-02-08T06:05:12.380Z,33.67
2023-02-08T06:07:40.524Z,35.55
2023-02-08T06:10:11.295Z,35.67
2023-02-08T06:12:41.075Z,35.67
2023-02-08T06:15:10.326Z,36.60
2023-02-08T06:17:38.419Z,36.05
2023-02-08T06:20:07.840Z,39.78
2023-02-08T06:22:36.765Z,36.33
2023-02-08T06:25:05.202Z,35.13
2023-02-08T06:27:33.827Z,36.72
2023-02-08T06:30:03.411Z,38.13
2023-02-08T06:32:31.675Z,37.38
2023-02-08T06:34:59.801Z,36.25
2023-02-08T06:37:28.009Z,36.50
2023-02-08T06:39:56.340Z,37.63
2023-02-08T06:42:24.515Z,37.78
2023-02-08T06:44:55.602Z,36.70
2023-02-08T06:47:25.532Z,36.42
2023-02-08T06:49:53.860Z,37.45
2023-02-08T06:52:22.638Z,37.08
2023-02-08T06:54:51.270Z,37.53
2023-02-08T06:57:19.611Z,37.10
2023-02-08T06:59:48.335Z,38.22
2023-02-08T07:02:21.736Z,36.35
2023-02-08T07:04:51.676Z,34.03
2023-02-08T07:07:19.941Z,34.75
2023-02-08T07:09:48.207Z,32.42
2023-02-08T07:12:16.502Z,32.97
2023-02-08T07:14:47.149Z,30.33
2023-02-08T07:17:15.610Z,32.88
2023-02-08T07:19:43.785Z,33.92
2023-02-08T07:22:13.547Z,32.80
2023-02-08T07:24:42.842Z,30.65
2023-02-08T07:27:13.903Z,32.00
2023-02-08T07:29:42.349Z,32.03
2023-02-08T07:32:11.468Z,31.80
2023-02-08T07:34:40.684Z,32.33
2023-02-08T07:37:09.361Z,30.70
2023-02-08T07:39:38.953Z,29.73
2023-02-08T07:42:07.533Z,30.83
2023-02-08T07:44:42.845Z,33.08
2023-02-08T07:47:11.284Z,31.98
2023-02-08T07:49:39.524Z,33.00
2023-02-08T07:52:07.676Z,33.90
2023-02-08T07:54:35.868Z,32.80
2023-02-08T07:57:05.491Z,33.92
2023-02-08T07:59:33.684Z,35.28
2023-02-08T08:02:01.933Z,33.55
2023-02-08T08:04:30.186Z,33.83
2023-02-08T08:06:58.857Z,35.17
2023-02-08T08:09:27.187Z,34.60
2023-02-08T08:11:55.467Z,35.50
2023-02-08T08:14:24.967Z,36.28
2023-02-08T08:16:53.218Z,37.95
2023-02-08T08:19:21.584Z,37.28
2023-02-08T08:21:49.772Z,37.70
2023-02-08T08:24:17.945Z,35.67
2023-02-08T08:26:46.045Z,35.42
2023-02-08T08:29:14.921Z,37.08
2023-02-08T08:31:45.935Z,36.58
2023-02-08T08:34:14.229Z,35.58
2023-02-08T08:36:42.557Z,36.03
2023-02-08T08:39:11.108Z,35.13
2023-02-08T08:41:39.253Z,35.67
2023-02-08T08:44:07.827Z,37.03
2023-02-08T08:46:36.391Z,38.80
2023-02-08T08:49:06.406Z,36.95
2023-02-08T08:51:35.512Z,36.58
2023-02-08T08:54:04.512Z,38.63
2023-02-08T08:56:33.617Z,35.60
2023-02-08T08:59:01.955Z,38.42
2023-02-08T09:01:31.422Z,37.33
2023-02-08T09:04:00.688Z,38.97
2023-02-08T09:06:30.617Z,40.70
2023-02-08T09:08:58.863Z,38.58
2023-02-08T09:11:27.100Z,38.00
2023-02-08T09:13:56.369Z,38.78
2023-02-08T09:16:26.301Z,37.45
2023-02-08T09:18:54.564Z,35.67
2023-02-08T09:21:25.842Z,38.03
2023-02-08T09:23:55.615Z,37.78
2023-02-08T09:26:25.118Z,39.38
2023-02-08T09:28:53.620Z,38.13
2023-02-08T09:31:24.117Z,37.00
2023-02-08T09:33:54.040Z,36.78
2023-02-08T09:36:23.047Z,38.08
2023-02-08T09:38:52.613Z,39.28
2023-02-08T09:41:37.636Z,38.53
2023-02-08T09:44:16.986Z,38.00
2023-02-08T09:46:52.954Z,39.13
2023-02-08T09:49:27.072Z,38.88
2023-02-08T09:51:59.117Z,39.72
2023-02-08T09:54:32.903Z,41.60
2023-02-08T09:57:07.082Z,39.95
2023-02-08T09:59:36.337Z,40.85
2023-02-08T10:14:13.289Z,38.22
2023-02-08T10:16:54.762Z,42.03
2023-02-08T10:19:35.975Z,42.83
2023-02-08T10:22:12.944Z,41.75
2023-02-08T10:25:16.324Z,41.53
2023-02-08T10:27:56.816Z,40.55
2023-02-08T10:30:32.918Z,40.50
2023-02-08T10:33:03.342Z,38.83
2023-02-08T10:35:37.216Z,41.83
2023-02-08T10:38:29.728Z,41.45
2023-02-08T10:41:05.655Z,40.08
2023-02-08T10:43:43.519Z,42.30
2023-02-08T10:46:18.087Z,40.00
2023-02-08T10:49:01.337Z,39.17
2023-02-08T10:51:32.214Z,38.90
2023-02-08T10:54:00.319Z,38.85
2023-02-08T10:56:44.215Z,42.05
2023-02-08T10:59:18.545Z,38.97
2023-02-08T11:01:49.705Z,39.95
2023-02-08T11:04:19.905Z,40.20
2023-02-08T11:06:49.672Z,39.75
2023-02-08T11:09:26.077Z,41.97
2023-02-08T11:11:55.365Z,40.55
2023-02-08T11:14:40.967Z,40.88
2023-02-08T11:17:29.098Z,39.80
2023-02-08T11:19:57.584Z,37.40
2023-02-08T11:22:27.952Z,37.22
2023-02-08T11:24:58.837Z,38.47
2023-02-08T11:27:35.420Z,36.92
2023-02-08T11:30:23.247Z,38.40
2023-02-08T11:33:18.249Z,39.25
2023-02-08T11:36:02.598Z,38.50
2023-02-08T11:38:32.079Z,39.10
2023-02-08T11:41:03.228Z,40.42
2023-02-08T11:43:36.160Z,39.05
2023-02-08T11:46:06.387Z,38.10
2023-02-08T11:48:45.704Z,38.30
2023-02-08T11:51:24.200Z,37.22
2023-02-08T11:53:52.349Z,37.88
2023-02-08T11:56:22.519Z,36.90
2023-02-08T11:59:07.745Z,38.67
2023-02-08T12:01:37.479Z,35.92
2023-02-08T12:04:09.608Z,36.70
2023-02-08T12:07:17.659Z,37.33
2023-02-08T12:10:11.993Z,35.63
2023-02-08T12:13:06.101Z,36.20
2023-02-08T12:15:57.479Z,35.60
2023-02-08T12:19:01.920Z,35.33
2023-02-08T12:24:07.406Z,35.17
2023-02-08T12:27:04.556Z,34.15
2023-02-08T12:29:47.779Z,35.92
2023-02-08T12:32:42.529Z,35.38
2023-02-08T12:35:50.922Z,36.85
2023-02-08T12:39:07.840Z,37.60
2023-02-08T12:41:53.842Z,37.00
2023-02-08T12:44:35.160Z,36.65
2023-02-08T12:47:20.826Z,38.47
2023-02-08T12:50:02.974Z,38.28
2023-02-08T12:52:37.292Z,36.50
2023-02-08T12:55:14.967Z,35.40
2023-02-08T12:57:45.761Z,36.33
2023-02-08T13:00:25.542Z,37.25
2023-02-08T13:03:02.291Z,35.90
2023-02-08T13:05:36.553Z,36.95
2023-02-08T13:08:14.260Z,37.20
2023-02-08T13:10:48.367Z,34.80
2023-02-08T13:13:20.303Z,39.28
2023-02-08T13:15:55.416Z,36.63
2023-02-08T13:18:28.558Z,35.33
2023-02-08T13:21:01.095Z,36.35
2023-02-08T13:23:38.432Z,36.95
2023-02-08T13:26:17.163Z,36.63
2023-02-08T13:28:48.362Z,37.00
2023-02-08T13:31:21.335Z,35.95
2023-02-08T13:34:01.366Z,36.30
2023-02-08T13:36:32.476Z,35.10
2023-02-08T13:39:02.620Z,38.08
2023-02-08T13:41:33.865Z,35.88
2023-02-08T13:44:04.818Z,35.22
2023-02-08T13:46:39.614Z,36.08
2023-02-08T13:49:07.734Z,35.60
2023-02-08T13:52:03.469Z,35.65
2023-02-08T13:54:33.126Z,36.15
2023-02-08T13:57:03.124Z,36.40
2023-02-08T13:59:36.982Z,35.28
2023-02-08T14:02:28.688Z,36.05
2023-02-08T14:05:40.077Z,37.22
2023-02-08T14:08:14.152Z,34.03
2023-02-08T14:10:48.113Z,34.95
2023-02-08T14:13:27.772Z,33.67
2023-02-08T14:16:28.403Z,34.70
2023-02-08T14:18:58.886Z,35.13
2023-02-08T14:21:38.046Z,35.95
2023-02-08T14:24:08.180Z,33.90
2023-02-08T14:26:37.691Z,36.60
2023-02-08T14:29:08.166Z,35.50
2023-02-08T14:31:43.122Z,35.38
2023-02-08T14:34:34.901Z,33.40
2023-02-08T14:37:26.190Z,32.80
2023-02-08T14:40:44.515Z,35.22
2023-02-08T14:43:35.222Z,33.17
2023-02-08T14:46:36.770Z,33.95
2023-02-08T14:49:11.199Z,32.30
2023-02-08T14:51:42.928Z,34.63
2023-02-08T14:54:22.368Z,33.80
2023-02-08T14:56:57.920Z,31.40
2023-02-08T14:59:31.126Z,33.08
2023-02-08T15:02:03.113Z,31.65
2023-02-08T15:04:32.744Z,31.20
2023-02-08T15:07:22.787Z,32.72
2023-02-08T15:09:51.270Z,32.35
2023-02-08T15:12:26.764Z,33.75
2023-02-08T15:15:00.235Z,34.08
2023-02-08T15:17:35.104Z,31.30
2023-02-08T15:20:08.376Z,31.58
2023-02-08T15:22:39.850Z,31.17
2023-02-08T15:25:25.994Z,32.60
2023-02-08T15:27:56.801Z,33.08
2023-02-08T15:30:36.490Z,32.40
2023-02-08T15:33:10.460Z,31.95
2023-02-08T15:35:40.123Z,33.10
2023-02-08T15:38:16.333Z,30.35
2023-02-08T15:40:44.866Z,30.67
2023-02-08T15:43:14.362Z,30.95
2023-02-08T15:45:42.899Z,31.38
2023-02-08T15:48:13.702Z,32.75
2023-02-08T15:50:43.516Z,31.85
2023-02-08T15:53:16.703Z,32.58
2023-02-08T15:55:48.064Z,34.75
2023-02-08T15:58:21.914Z,31.83
2023-02-08T16:00:51.085Z,33.05
2023-02-08T16:03:23.560Z,33.33
2023-02-08T16:05:55.504Z,31.75
2023-02-08T16:08:28.054Z,32.73
2023-02-08T16:13:28.464Z,32.70
2023-02-08T16:16:08.507Z,33.65
2023-02-08T16:18:45.838Z,31.83
2023-02-08T16:21:27.748Z,32.92
2023-02-08T16:23:57.569Z,30.30
2023-02-08T16:26:28.889Z,32.95
2023-02-08T16:29:02.176Z,32.80
2023-02-08T16:31:35.835Z,33.55
2023-02-08T16:34:06.282Z,32.13
2023-02-08T16:36:38.718Z,32.85
2023-02-08T16:39:36.809Z,32.97
2023-02-08T16:42:15.957Z,34.95
2023-02-08T16:45:13.758Z,32.45
2023-02-08T16:47:43.113Z,33.78
2023-02-08T16:50:13.789Z,33.35
2023-02-08T16:52:43.578Z,33.30
2023-02-08T16:55:19.517Z,33.97
2023-02-08T16:57:49.381Z,34.88
2023-02-08T17:00:22.286Z,35.00
2023-02-08T17:02:50.993Z,34.90
2023-02-08T17:05:20.992Z,36.20
2023-02-08T17:07:50.987Z,38.53
2023-02-08T17:10:24.423Z,37.25
2023-02-08T17:12:57.503Z,40.13
2023-02-08T17:15:32.502Z,44.03
2023-02-08T17:18:00.682Z,41.00
2023-02-08T17:20:30.614Z,44.65
2023-02-08T17:23:01.671Z,40.03
2023-02-08T17:25:33.631Z,38.08
2023-02-08T17:28:03.468Z,39.05
2023-02-08T17:30:36.067Z,41.50
2023-02-08T17:35:37.617Z,39.72
2023-02-08T17:38:07.366Z,41.67
2023-02-08T17:40:37.399Z,41.20
2023-02-08T17:43:06.491Z,40.42
2023-02-08T17:45:39.699Z,43.78
2023-02-08T17:48:10.220Z,39.08
2023-02-08T17:50:38.524Z,39.42
2023-02-08T17:53:08.473Z,36.95
2023-02-08T17:55:36.887Z,36.35
2023-02-08T17:58:07.995Z,37.35
2023-02-08T18:00:36.202Z,35.72
2023-02-08T18:03:07.039Z,37.85
2023-02-08T18:05:35.117Z,36.03
2023-02-08T18:08:03.303Z,36.30
2023-02-08T18:10:34.868Z,36.25
2023-02-08T18:13:04.060Z,35.60
2023-02-08T18:15:32.285Z,34.53
2023-02-08T18:18:00.570Z,36.22
2023-02-08T18:20:29.009Z,35.97
2023-02-08T18:22:57.202Z,37.17
2023-02-08T18:25:25.479Z,37.28
2023-02-08T18:27:55.097Z,38.65
2023-02-08T18:30:25.518Z,39.20
2023-02-08T18:32:53.609Z,36.20
2023-02-08T18:35:22.433Z,35.85
2023-02-08T18:37:50.564Z,36.83
2023-02-08T18:40:19.174Z,38.17
2023-02-08T18:42:47.273Z,37.15
2023-02-08T18:45:16.871Z,34.92
2023-02-08T18:47:45.337Z,34.15
2023-02-08T18:50:13.887Z,35.28
2023-02-08T18:52:42.260Z,35.10
2023-02-08T18:55:10.822Z,34.65
2023-02-08T18:57:39.978Z,33.75
2023-02-08T19:00:09.372Z,35.15
2023-02-08T19:02:39.691Z,35.42
2023-02-08T19:05:08.776Z,35.08
2023-02-08T19:07:38.723Z,34.17
2023-02-08T19:10:08.281Z,34.50
2023-02-08T19:12:37.227Z,33.65
2023-02-08T19:15:06.091Z,34.20
2023-02-08T19:17:34.353Z,35.33
2023-02-08T19:20:03.935Z,35.50
2023-02-08T19:22:32.734Z,35.10
2023-02-08T19:25:00.940Z,34.03
2023-02-08T19:27:31.897Z,34.25
2023-02-08T19:30:00.194Z,34.65
2023-02-08T19:32:28.374Z,35.10
2023-02-08T19:34:56.916Z,39.60
2023-02-08T19:37:27.665Z,41.75
2023-02-08T19:39:56.312Z,37.70
2023-02-08T19:42:24.565Z,37.53
2023-02-08T19:44:52.681Z,35.65
2023-02-08T19:47:22.428Z,35.17
2023-02-08T19:49:51.504Z,35.80
2023-02-08T19:52:20.785Z,35.97
2023-02-08T19:54:50.994Z,35.35
2023-02-08T19:57:21.811Z,35.92
2023-02-08T19:59:50.246Z,37.50
2023-02-08T20:02:18.972Z,36.72
2023-02-08T20:04:49.274Z,35.90
2023-02-08T20:07:17.445Z,35.40
2023-02-08T20:09:48.244Z,35.25
2023-02-08T20:12:18.177Z,34.45
2023-02-08T20:14:47.130Z,35.00
2023-02-08T20:17:15.375Z,34.63
2023-02-08T20:19:43.459Z,34.38
2023-02-08T20:22:13.992Z,33.72
2023-02-08T20:24:43.616Z,34.60
2023-02-08T20:27:12.013Z,33.80
2023-02-08T20:29:43.791Z,32.33
2023-02-08T20:32:14.451Z,32.45
2023-02-08T20:34:50.639Z,34.10
2023-02-08T20:37:27.944Z,34.28
2023-02-08T20:39:56.073Z,33.58
2023-02-08T20:42:27.791Z,34.38
2023-02-08T20:45:00.480Z,30.92
2023-02-08T20:47:31.834Z,33.22
2023-02-08T20:50:03.119Z,32.00
2023-02-08T20:52:38.458Z,32.58
2023-02-08T20:55:07.725Z,33.55
2023-02-08T20:57:36.152Z,32.88
2023-02-08T21:00:07.646Z,32.97
2023-02-08T21:02:36.961Z,34.90
2023-02-08T21:05:06.174Z,36.42
2023-02-08T21:07:40.329Z,34.85
2023-02-08T21:10:09.250Z,37.50
2023-02-08T21:12:38.135Z,35.90
2023-02-08T21:15:09.099Z,33.15
2023-02-08T21:17:40.641Z,34.97
2023-02-08T21:20:10.029Z,36.08
2023-02-08T21:22:38.139Z,36.67
2023-02-08T21:25:06.684Z,34.53
2023-02-08T21:27:34.950Z,34.00
2023-02-08T21:30:03.145Z,32.83
2023-02-08T21:32:32.719Z,32.70
2023-02-08T21:35:01.279Z,30.63
2023-02-08T21:37:29.313Z,32.47
2023-02-08T21:39:57.832Z,29.48
2023-02-08T21:42:26.182Z,31.02
2023-02-08T21:44:54.408Z,30.02
2023-02-08T21:47:22.745Z,33.10
2023-02-08T21:50:09.477Z,32.03
2023-02-08T21:52:55.104Z,32.20
2023-02-08T21:55:25.685Z,32.55
2023-02-08T21:57:53.938Z,31.90
2023-02-08T22:00:22.067Z,29.45
2023-02-08T22:02:50.305Z,30.83
2023-02-08T22:05:22.111Z,29.10
2023-02-08T22:07:52.344Z,29.98
2023-02-08T22:10:23.535Z,33.30
2023-02-08T22:12:53.210Z,29.05
2023-02-08T22:15:23.760Z,29.92
2023-02-08T22:17:55.202Z,29.60
2023-02-08T22:20:25.848Z,28.95
2023-02-08T22:22:55.326Z,28.15
2023-02-08T22:25:24.445Z,27.48
2023-02-08T22:27:52.956Z,28.08
2023-02-08T22:30:22.836Z,29.27
2023-02-08T22:32:55.069Z,26.98
2023-02-08T22:35:23.338Z,25.92
2023-02-08T22:37:53.283Z,26.48
2023-02-08T22:40:21.601Z,27.05
2023-02-08T22:42:49.720Z,28.05
2023-02-08T22:45:18.046Z,27.42
2023-02-08T22:47:46.325Z,25.92
2023-02-08T22:50:15.025Z,26.92
2023-02-08T22:52:43.265Z,26.45
2023-02-08T22:55:13.073Z,25.15
2023-02-08T22:57:43.413Z,26.38
2023-02-08T23:00:15.079Z,26.35
2023-02-08T23:02:45.612Z,25.05
2023-02-08T23:05:14.560Z,24.70
2023-02-08T23:07:42.730Z,24.48
2023-02-08T23:10:13.458Z,25.30
2023-02-08T23:12:41.830Z,24.83
2023-02-08T23:15:12.227Z,24.42
2023-02-08T23:17:40.445Z,23.67
2023-02-08T23:20:10.327Z,24.02
2023-02-08T23:22:38.680Z,23.17
2023-02-08T23:25:07.620Z,23.13
2023-02-08T23:27:37.228Z,24.30
2023-02-08T23:30:09.176Z,22.80
2023-02-08T23:32:37.914Z,23.67
2023-02-08T23:35:06.630Z,23.65
2023-02-08T23:37:34.946Z,23.25
2023-02-08T23:40:03.160Z,24.33
2023-02-08T23:42:31.290Z,23.95
2023-02-08T23:45:02.236Z,25.00
2023-02-08T23:47:31.135Z,24.60
2023-02-08T23:49:59.275Z,22.45
2023-02-08T23:52:27.977Z,23.48
2023-02-08T23:54:56.206Z,23.05
2023-02-08T23:57:24.235Z,23.98
2023-02-08T23:59:55.634Z,24.55
